sensor_id;sensor_type;location;lat;lon;timestamp;P1;durP1;ratioP1;P2;durP2;ratioP2
6862;SDS011;3470;48.738;9.616;2022-08-01T00:00:34;3.05;;;1.80;;
6862;SDS011;3470;48.738;9.616;2022-08-01T00:03:00;3.15;;;1.95;;
6862;SDS011;3470;48.738;9.616;2022-08-01T00:05:25;2.75;;;1.92;;
6862;SDS011;3470;48.738;9.616;2022-08-01T00:07:51;2.30;;;2.10;;
6862;SDS011;3470;48.738;9.616;2022-08-01T00:10:17;3.15;;;1.80;;
6862;SDS011;3470;48.738;9.616;2022-08-01T00:12:43;3.38;;;2.10;;
6862;SDS011;3470;48.738;9.616;2022-08-01T00:15:10;2.80;;;2.00;;
6862;SDS011;3470;48.738;9.616;2022-08-01T00:17:38;2.42;;;1.90;;
6862;SDS011;3470;48.738;9.616;2022-08-01T00:20:06;3.63;;;1.80;;
6862;SDS011;3470;48.738;9.616;2022-08-01T00:22:34;5.32;;;2.33;;
6862;SDS011;3470;48.738;9.616;2022-08-01T00:25:00;2.45;;;2.20;;
6862;SDS011;3470;48.738;9.616;2022-08-01T00:27:27;3.33;;;2.10;;
6862;SDS011;3470;48.738;9.616;2022-08-01T00:29:53;1.90;;;1.80;;
6862;SDS011;3470;48.738;9.616;2022-08-01T00:32:18;2.20;;;2.00;;
6862;SDS011;3470;48.738;9.616;2022-08-01T00:34:44;2.10;;;1.90;;
6862;SDS011;3470;48.738;9.616;2022-08-01T00:37:10;2.55;;;2.28;;
6862;SDS011;3470;48.738;9.616;2022-08-01T00:39:36;2.55;;;2.10;;
6862;SDS011;3470;48.738;9.616;2022-08-01T00:42:08;2.65;;;2.13;;
6862;SDS011;3470;48.738;9.616;2022-08-01T00:44:34;2.00;;;1.80;;
6862;SDS011;3470;48.738;9.616;2022-08-01T00:47:00;2.30;;;1.95;;
6862;SDS011;3470;48.738;9.616;2022-08-01T00:49:26;2.70;;;2.15;;
6862;SDS011;3470;48.738;9.616;2022-08-01T00:51:53;2.30;;;2.10;;
6862;SDS011;3470;48.738;9.616;2022-08-01T00:54:23;4.97;;;2.47;;
6862;SDS011;3470;48.738;9.616;2022-08-01T00:56:50;2.90;;;2.25;;
6862;SDS011;3470;48.738;9.616;2022-08-01T00:59:17;2.15;;;1.95;;
6862;SDS011;3470;48.738;9.616;2022-08-01T01:01:43;2.38;;;2.10;;
6862;SDS011;3470;48.738;9.616;2022-08-01T01:04:08;2.33;;;1.85;;
6862;SDS011;3470;48.738;9.616;2022-08-01T01:14:14;2.55;;;2.20;;
6862;SDS011;3470;48.738;9.616;2022-08-01T01:16:55;3.40;;;2.00;;
6862;SDS011;3470;48.738;9.616;2022-08-01T01:19:24;2.53;;;2.33;;
6862;SDS011;3470;48.738;9.616;2022-08-01T01:22:08;2.50;;;2.10;;
6862;SDS011;3470;48.738;9.616;2022-08-01T01:24:47;3.47;;;2.00;;
6862;SDS011;3470;48.738;9.616;2022-08-01T01:27:36;4.53;;;2.00;;
6862;SDS011;3470;48.738;9.616;2022-08-01T01:30:10;2.60;;;2.10;;
6862;SDS011;3470;48.738;9.616;2022-08-01T01:32:41;2.70;;;2.15;;
6862;SDS011;3470;48.738;9.616;2022-08-01T01:35:10;3.03;;;2.50;;
6862;SDS011;3470;48.738;9.616;2022-08-01T01:37:42;2.70;;;2.38;;
6862;SDS011;3470;48.738;9.616;2022-08-01T01:40:11;2.97;;;2.35;;
6862;SDS011;3470;48.738;9.616;2022-08-01T01:42:40;3.03;;;2.10;;
6862;SDS011;3470;48.738;9.616;2022-08-01T01:45:07;2.50;;;2.30;;
6862;SDS011;3470;48.738;9.616;2022-08-01T01:47:33;3.22;;;2.30;;
6862;SDS011;3470;48.738;9.616;2022-08-01T01:50:01;2.55;;;2.20;;
6862;SDS011;3470;48.738;9.616;2022-08-01T01:52:27;3.17;;;2.15;;
6862;SDS011;3470;48.738;9.616;2022-08-01T01:54:56;2.35;;;2.15;;
6862;SDS011;3470;48.738;9.616;2022-08-01T01:57:23;3.45;;;2.28;;
6862;SDS011;3470;48.738;9.616;2022-08-01T01:59:49;4.00;;;2.58;;
6862;SDS011;3470;48.738;9.616;2022-08-01T02:02:17;4.05;;;2.20;;
6862;SDS011;3470;48.738;9.616;2022-08-01T02:04:45;2.28;;;2.17;;
6862;SDS011;3470;48.738;9.616;2022-08-01T02:07:12;2.50;;;2.30;;
6862;SDS011;3470;48.738;9.616;2022-08-01T02:09:42;3.50;;;2.35;;
6862;SDS011;3470;48.738;9.616;2022-08-01T02:12:10;2.72;;;2.53;;
6862;SDS011;3470;48.738;9.616;2022-08-01T02:14:37;2.28;;;2.05;;
6862;SDS011;3470;48.738;9.616;2022-08-01T02:17:07;4.25;;;2.88;;
6862;SDS011;3470;48.738;9.616;2022-08-01T02:19:35;2.50;;;2.30;;
6862;SDS011;3470;48.738;9.616;2022-08-01T02:22:04;5.80;;;2.47;;
6862;SDS011;3470;48.738;9.616;2022-08-01T02:24:42;2.75;;;2.25;;
6862;SDS011;3470;48.738;9.616;2022-08-01T02:27:15;4.20;;;2.58;;
6862;SDS011;3470;48.738;9.616;2022-08-01T02:32:28;2.40;;;2.20;;
6862;SDS011;3470;48.738;9.616;2022-08-01T02:34:57;2.67;;;1.98;;
6862;SDS011;3470;48.738;9.616;2022-08-01T02:37:26;3.03;;;2.40;;
6862;SDS011;3470;48.738;9.616;2022-08-01T02:39:56;4.38;;;2.47;;
6862;SDS011;3470;48.738;9.616;2022-08-01T02:42:23;3.42;;;2.42;;
6862;SDS011;3470;48.738;9.616;2022-08-01T02:44:50;2.72;;;2.53;;
6862;SDS011;3470;48.738;9.616;2022-08-01T02:47:19;4.25;;;2.88;;
6862;SDS011;3470;48.738;9.616;2022-08-01T02:49:47;2.80;;;2.60;;
6862;SDS011;3470;48.738;9.616;2022-08-01T02:52:15;2.60;;;2.40;;
6862;SDS011;3470;48.738;9.616;2022-08-01T02:54:43;4.47;;;2.70;;
6862;SDS011;3470;48.738;9.616;2022-08-01T02:57:10;2.63;;;2.42;;
6862;SDS011;3470;48.738;9.616;2022-08-01T02:59:38;4.57;;;2.70;;
6862;SDS011;3470;48.738;9.616;2022-08-01T03:02:05;4.05;;;2.63;;
6862;SDS011;3470;48.738;9.616;2022-08-01T03:04:33;4.68;;;2.60;;
6862;SDS011;3470;48.738;9.616;2022-08-01T03:07:00;4.53;;;2.55;;
6862;SDS011;3470;48.738;9.616;2022-08-01T03:09:28;3.15;;;2.70;;
6862;SDS011;3470;48.738;9.616;2022-08-01T03:11:58;2.97;;;2.67;;
6862;SDS011;3470;48.738;9.616;2022-08-01T03:14:26;2.78;;;2.58;;
6862;SDS011;3470;48.738;9.616;2022-08-01T03:16:53;3.47;;;2.70;;
6862;SDS011;3470;48.738;9.616;2022-08-01T03:19:21;2.92;;;2.40;;
6862;SDS011;3470;48.738;9.616;2022-08-01T03:21:50;3.45;;;3.00;;
6862;SDS011;3470;48.738;9.616;2022-08-01T03:24:17;5.72;;;2.95;;
6862;SDS011;3470;48.738;9.616;2022-08-01T03:26:44;3.97;;;2.63;;
6862;SDS011;3470;48.738;9.616;2022-08-01T03:29:12;3.05;;;2.80;;
6862;SDS011;3470;48.738;9.616;2022-08-01T03:31:43;2.72;;;2.42;;
6862;SDS011;3470;48.738;9.616;2022-08-01T03:34:10;3.00;;;2.70;;
6862;SDS011;3470;48.738;9.616;2022-08-01T03:36:38;3.13;;;2.83;;
6862;SDS011;3470;48.738;9.616;2022-08-01T03:39:20;4.75;;;2.80;;
6862;SDS011;3470;48.738;9.616;2022-08-01T03:41:51;3.20;;;2.85;;
6862;SDS011;3470;48.738;9.616;2022-08-01T03:44:24;3.15;;;2.95;;
6862;SDS011;3470;48.738;9.616;2022-08-01T03:46:54;4.45;;;2.85;;
6862;SDS011;3470;48.738;9.616;2022-08-01T03:49:26;3.33;;;3.03;;
6862;SDS011;3470;48.738;9.616;2022-08-01T03:51:55;4.18;;;3.40;;
6862;SDS011;3470;48.738;9.616;2022-08-01T03:54:23;4.97;;;2.85;;
6862;SDS011;3470;48.738;9.616;2022-08-01T03:56:52;3.45;;;2.88;;
6862;SDS011;3470;48.738;9.616;2022-08-01T03:59:19;3.17;;;2.88;;
6862;SDS011;3470;48.738;9.616;2022-08-01T04:01:46;3.65;;;2.88;;
6862;SDS011;3470;48.738;9.616;2022-08-01T04:04:12;5.15;;;3.33;;
6862;SDS011;3470;48.738;9.616;2022-08-01T04:06:39;3.90;;;3.33;;
6862;SDS011;3470;48.738;9.616;2022-08-01T04:09:08;5.97;;;3.07;;
6862;SDS011;3470;48.738;9.616;2022-08-01T04:11:35;4.40;;;3.42;;
6862;SDS011;3470;48.738;9.616;2022-08-01T04:14:00;5.03;;;3.08;;
6862;SDS011;3470;48.738;9.616;2022-08-01T04:16:26;5.65;;;3.50;;
6862;SDS011;3470;48.738;9.616;2022-08-01T04:18:52;4.53;;;2.92;;
6862;SDS011;3470;48.738;9.616;2022-08-01T04:21:18;3.30;;;3.00;;
6862;SDS011;3470;48.738;9.616;2022-08-01T04:23:52;3.75;;;3.05;;
6862;SDS011;3470;48.738;9.616;2022-08-01T04:26:20;3.30;;;3.00;;
6862;SDS011;3470;48.738;9.616;2022-08-01T04:28:48;4.38;;;3.50;;
6862;SDS011;3470;48.738;9.616;2022-08-01T04:31:16;3.45;;;3.15;;
6862;SDS011;3470;48.738;9.616;2022-08-01T04:33:45;3.67;;;3.38;;
6862;SDS011;3470;48.738;9.616;2022-08-01T04:36:17;3.65;;;3.10;;
6862;SDS011;3470;48.738;9.616;2022-08-01T04:38:45;3.22;;;2.92;;
6862;SDS011;3470;48.738;9.616;2022-08-01T04:41:15;3.17;;;2.88;;
6862;SDS011;3470;48.738;9.616;2022-08-01T04:43:42;3.50;;;2.65;;
6862;SDS011;3470;48.738;9.616;2022-08-01T04:46:08;6.45;;;3.60;;
6862;SDS011;3470;48.738;9.616;2022-08-01T04:48:36;3.20;;;2.90;;
6862;SDS011;3470;48.738;9.616;2022-08-01T04:51:03;4.45;;;3.35;;
6862;SDS011;3470;48.738;9.616;2022-08-01T04:53:29;3.58;;;3.28;;
6862;SDS011;3470;48.738;9.616;2022-08-01T04:55:57;3.60;;;2.65;;
6862;SDS011;3470;48.738;9.616;2022-08-01T04:58:23;3.20;;;3.00;;
6862;SDS011;3470;48.738;9.616;2022-08-01T05:00:49;3.95;;;2.90;;
6862;SDS011;3470;48.738;9.616;2022-08-01T05:03:14;3.28;;;2.97;;
6862;SDS011;3470;48.738;9.616;2022-08-01T05:05:40;5.35;;;3.20;;
6862;SDS011;3470;48.738;9.616;2022-08-01T05:08:06;3.20;;;2.83;;
6862;SDS011;3470;48.738;9.616;2022-08-01T05:10:32;4.18;;;2.75;;
6862;SDS011;3470;48.738;9.616;2022-08-01T05:12:57;3.10;;;2.80;;
6862;SDS011;3470;48.738;9.616;2022-08-01T05:15:23;3.60;;;3.00;;
6862;SDS011;3470;48.738;9.616;2022-08-01T05:17:48;3.47;;;3.17;;
6862;SDS011;3470;48.738;9.616;2022-08-01T05:20:14;3.95;;;2.95;;
6862;SDS011;3470;48.738;9.616;2022-08-01T05:22:40;3.00;;;2.78;;
6862;SDS011;3470;48.738;9.616;2022-08-01T05:25:06;3.40;;;3.10;;
6862;SDS011;3470;48.738;9.616;2022-08-01T05:27:31;3.33;;;3.03;;
6862;SDS011;3470;48.738;9.616;2022-08-01T05:29:57;3.30;;;3.00;;
6862;SDS011;3470;48.738;9.616;2022-08-01T05:32:23;3.35;;;3.05;;
6862;SDS011;3470;48.738;9.616;2022-08-01T05:34:48;3.67;;;3.30;;
6862;SDS011;3470;48.738;9.616;2022-08-01T05:37:14;3.58;;;3.25;;
6862;SDS011;3470;48.738;9.616;2022-08-01T05:39:40;3.20;;;2.92;;
6862;SDS011;3470;48.738;9.616;2022-08-01T05:42:06;3.53;;;2.70;;
6862;SDS011;3470;48.738;9.616;2022-08-01T05:44:31;4.25;;;3.20;;
6862;SDS011;3470;48.738;9.616;2022-08-01T05:46:57;3.10;;;2.83;;
6862;SDS011;3470;48.738;9.616;2022-08-01T05:49:23;3.70;;;2.90;;
6862;SDS011;3470;48.738;9.616;2022-08-01T05:51:48;3.85;;;3.05;;
6862;SDS011;3470;48.738;9.616;2022-08-01T05:54:14;4.13;;;2.85;;
6862;SDS011;3470;48.738;9.616;2022-08-01T05:56:40;3.50;;;3.20;;
6862;SDS011;3470;48.738;9.616;2022-08-01T05:59:05;4.05;;;3.00;;
6862;SDS011;3470;48.738;9.616;2022-08-01T06:01:31;3.40;;;3.10;;
6862;SDS011;3470;48.738;9.616;2022-08-01T06:03:56;3.63;;;3.05;;
6862;SDS011;3470;48.738;9.616;2022-08-01T06:06:22;3.53;;;2.70;;
6862;SDS011;3470;48.738;9.616;2022-08-01T06:08:48;4.18;;;3.05;;
6862;SDS011;3470;48.738;9.616;2022-08-01T06:11:14;3.03;;;2.83;;
6862;SDS011;3470;48.738;9.616;2022-08-01T06:13:39;3.15;;;2.95;;
6862;SDS011;3470;48.738;9.616;2022-08-01T06:16:05;4.78;;;2.75;;
6862;SDS011;3470;48.738;9.616;2022-08-01T06:18:31;4.78;;;2.92;;
6862;SDS011;3470;48.738;9.616;2022-08-01T06:20:56;4.85;;;3.10;;
6862;SDS011;3470;48.738;9.616;2022-08-01T06:23:22;2.88;;;2.55;;
6862;SDS011;3470;48.738;9.616;2022-08-01T06:25:47;3.22;;;2.90;;
6862;SDS011;3470;48.738;9.616;2022-08-01T06:28:16;5.65;;;2.63;;
6862;SDS011;3470;48.738;9.616;2022-08-01T06:30:42;2.83;;;2.60;;
6862;SDS011;3470;48.738;9.616;2022-08-01T06:33:08;3.42;;;2.75;;
6862;SDS011;3470;48.738;9.616;2022-08-01T06:35:34;4.75;;;2.90;;
6862;SDS011;3470;48.738;9.616;2022-08-01T06:37:59;3.60;;;2.63;;
6862;SDS011;3470;48.738;9.616;2022-08-01T06:40:25;4.25;;;2.80;;
6862;SDS011;3470;48.738;9.616;2022-08-01T06:42:51;6.15;;;2.95;;
6862;SDS011;3470;48.738;9.616;2022-08-01T06:45:17;4.70;;;3.00;;
6862;SDS011;3470;48.738;9.616;2022-08-01T06:47:43;3.50;;;3.15;;
6862;SDS011;3470;48.738;9.616;2022-08-01T06:50:10;5.47;;;3.08;;
6862;SDS011;3470;48.738;9.616;2022-08-01T06:52:36;3.15;;;2.80;;
6862;SDS011;3470;48.738;9.616;2022-08-01T06:55:03;2.83;;;2.63;;
6862;SDS011;3470;48.738;9.616;2022-08-01T06:57:29;3.67;;;2.88;;
6862;SDS011;3470;48.738;9.616;2022-08-01T06:59:54;4.32;;;2.80;;
6862;SDS011;3470;48.738;9.616;2022-08-01T07:02:20;3.10;;;2.80;;
6862;SDS011;3470;48.738;9.616;2022-08-01T07:04:47;3.28;;;2.50;;
6862;SDS011;3470;48.738;9.616;2022-08-01T07:07:12;4.00;;;2.78;;
6862;SDS011;3470;48.738;9.616;2022-08-01T07:09:38;3.88;;;2.90;;
6862;SDS011;3470;48.738;9.616;2022-08-01T07:12:06;5.57;;;3.00;;
6862;SDS011;3470;48.738;9.616;2022-08-01T07:14:32;2.67;;;2.47;;
6862;SDS011;3470;48.738;9.616;2022-08-01T07:16:57;3.85;;;3.05;;
6862;SDS011;3470;48.738;9.616;2022-08-01T07:19:23;2.80;;;2.47;;
6862;SDS011;3470;48.738;9.616;2022-08-01T07:21:48;4.20;;;2.92;;
6862;SDS011;3470;48.738;9.616;2022-08-01T07:24:14;3.00;;;2.70;;
6862;SDS011;3470;48.738;9.616;2022-08-01T07:26:44;3.03;;;2.60;;
6862;SDS011;3470;48.738;9.616;2022-08-01T07:29:11;3.55;;;2.65;;
6862;SDS011;3470;48.738;9.616;2022-08-01T07:31:37;2.50;;;2.30;;
6862;SDS011;3470;48.738;9.616;2022-08-01T07:34:02;2.83;;;2.60;;
6862;SDS011;3470;48.738;9.616;2022-08-01T07:36:28;4.25;;;2.63;;
6862;SDS011;3470;48.738;9.616;2022-08-01T07:38:54;2.67;;;2.28;;
6862;SDS011;3470;48.738;9.616;2022-08-01T07:41:20;4.78;;;3.03;;
6862;SDS011;3470;48.738;9.616;2022-08-01T07:43:46;2.90;;;2.20;;
6862;SDS011;3470;48.738;9.616;2022-08-01T07:46:13;3.45;;;2.53;;
6862;SDS011;3470;48.738;9.616;2022-08-01T07:48:39;3.35;;;2.28;;
6862;SDS011;3470;48.738;9.616;2022-08-01T07:51:05;2.40;;;2.20;;
6862;SDS011;3470;48.738;9.616;2022-08-01T07:53:30;3.25;;;2.00;;
6862;SDS011;3470;48.738;9.616;2022-08-01T07:55:56;2.40;;;2.20;;
6862;SDS011;3470;48.738;9.616;2022-08-01T07:58:22;2.85;;;2.40;;
6862;SDS011;3470;48.738;9.616;2022-08-01T08:00:47;3.97;;;2.10;;
6862;SDS011;3470;48.738;9.616;2022-08-01T08:03:13;3.95;;;1.95;;
6862;SDS011;3470;48.738;9.616;2022-08-01T08:05:38;2.17;;;1.75;;
6862;SDS011;3470;48.738;9.616;2022-08-01T08:08:05;2.00;;;1.80;;
6862;SDS011;3470;48.738;9.616;2022-08-01T08:10:31;3.33;;;2.13;;
6862;SDS011;3470;48.738;9.616;2022-08-01T08:12:57;3.03;;;2.15;;
6862;SDS011;3470;48.738;9.616;2022-08-01T08:15:23;3.13;;;2.25;;
6862;SDS011;3470;48.738;9.616;2022-08-01T08:17:48;2.25;;;2.03;;
6862;SDS011;3470;48.738;9.616;2022-08-01T08:20:14;2.00;;;1.80;;
6862;SDS011;3470;48.738;9.616;2022-08-01T08:22:40;3.63;;;1.90;;
6862;SDS011;3470;48.738;9.616;2022-08-01T08:25:06;2.53;;;1.95;;
6862;SDS011;3470;48.738;9.616;2022-08-01T08:27:32;2.72;;;1.95;;
6862;SDS011;3470;48.738;9.616;2022-08-01T08:29:58;1.77;;;1.67;;
6862;SDS011;3470;48.738;9.616;2022-08-01T08:32:23;3.15;;;2.30;;
6862;SDS011;3470;48.738;9.616;2022-08-01T08:34:49;1.95;;;1.75;;
6862;SDS011;3470;48.738;9.616;2022-08-01T08:37:15;4.15;;;2.10;;
6862;SDS011;3470;48.738;9.616;2022-08-01T08:39:42;3.90;;;2.00;;
6862;SDS011;3470;48.738;9.616;2022-08-01T08:42:08;2.88;;;2.10;;
6862;SDS011;3470;48.738;9.616;2022-08-01T08:44:34;2.42;;;2.08;;
6862;SDS011;3470;48.738;9.616;2022-08-01T08:47:01;5.15;;;2.10;;
6862;SDS011;3470;48.738;9.616;2022-08-01T08:49:30;2.33;;;2.13;;
6862;SDS011;3470;48.738;9.616;2022-08-01T08:51:58;3.42;;;2.17;;
6862;SDS011;3470;48.738;9.616;2022-08-01T08:54:25;2.75;;;2.10;;
6862;SDS011;3470;48.738;9.616;2022-08-01T08:56:51;2.58;;;1.70;;
6862;SDS011;3470;48.738;9.616;2022-08-01T08:59:18;1.90;;;1.70;;
6862;SDS011;3470;48.738;9.616;2022-08-01T09:01:44;3.00;;;2.00;;
6862;SDS011;3470;48.738;9.616;2022-08-01T09:04:10;1.83;;;1.73;;
6862;SDS011;3470;48.738;9.616;2022-08-01T09:06:36;2.95;;;1.98;;
6862;SDS011;3470;48.738;9.616;2022-08-01T09:09:03;3.90;;;1.90;;
6862;SDS011;3470;48.738;9.616;2022-08-01T09:11:28;1.90;;;1.80;;
6862;SDS011;3470;48.738;9.616;2022-08-01T09:14:01;2.20;;;2.00;;
6862;SDS011;3470;48.738;9.616;2022-08-01T09:16:40;1.77;;;1.65;;
6862;SDS011;3470;48.738;9.616;2022-08-01T09:19:14;2.42;;;2.00;;
6862;SDS011;3470;48.738;9.616;2022-08-01T09:22:03;2.15;;;1.92;;
6862;SDS011;3470;48.738;9.616;2022-08-01T09:24:31;3.00;;;2.00;;
6862;SDS011;3470;48.738;9.616;2022-08-01T09:26:57;2.83;;;2.13;;
6862;SDS011;3470;48.738;9.616;2022-08-01T09:29:28;3.50;;;1.92;;
6862;SDS011;3470;48.738;9.616;2022-08-01T09:31:54;2.08;;;1.92;;
6862;SDS011;3470;48.738;9.616;2022-08-01T09:34:27;2.67;;;1.85;;
6862;SDS011;3470;48.738;9.616;2022-08-01T09:36:56;1.90;;;1.80;;
6862;SDS011;3470;48.738;9.616;2022-08-01T09:42:02;2.35;;;1.92;;
6862;SDS011;3470;48.738;9.616;2022-08-01T09:44:47;2.35;;;1.85;;
6862;SDS011;3470;48.738;9.616;2022-08-01T09:47:14;2.35;;;1.80;;
6862;SDS011;3470;48.738;9.616;2022-08-01T09:49:41;2.50;;;1.90;;
6862;SDS011;3470;48.738;9.616;2022-08-01T09:52:12;2.10;;;1.90;;
6862;SDS011;3470;48.738;9.616;2022-08-01T09:54:39;3.35;;;1.85;;
6862;SDS011;3470;48.738;9.616;2022-08-01T09:57:07;3.05;;;2.20;;
6862;SDS011;3470;48.738;9.616;2022-08-01T09:59:34;3.50;;;2.33;;
6862;SDS011;3470;48.738;9.616;2022-08-01T10:02:02;3.33;;;2.38;;
6862;SDS011;3470;48.738;9.616;2022-08-01T10:04:28;3.25;;;2.15;;
6862;SDS011;3470;48.738;9.616;2022-08-01T10:06:57;3.53;;;2.08;;
6862;SDS011;3470;48.738;9.616;2022-08-01T10:09:30;3.75;;;2.70;;
6862;SDS011;3470;48.738;9.616;2022-08-01T10:11:58;7.57;;;2.80;;
6862;SDS011;3470;48.738;9.616;2022-08-01T10:14:25;6.20;;;2.90;;
6862;SDS011;3470;48.738;9.616;2022-08-01T10:16:52;5.38;;;3.30;;
6862;SDS011;3470;48.738;9.616;2022-08-01T10:19:24;3.80;;;3.33;;
6862;SDS011;3470;48.738;9.616;2022-08-01T10:21:52;6.90;;;3.60;;
6862;SDS011;3470;48.738;9.616;2022-08-01T10:24:19;3.25;;;2.95;;
6862;SDS011;3470;48.738;9.616;2022-08-01T10:26:49;3.70;;;2.80;;
6862;SDS011;3470;48.738;9.616;2022-08-01T10:29:18;3.53;;;3.05;;
6862;SDS011;3470;48.738;9.616;2022-08-01T10:31:45;2.58;;;2.38;;
6862;SDS011;3470;48.738;9.616;2022-08-01T10:34:11;4.13;;;2.67;;
6862;SDS011;3470;48.738;9.616;2022-08-01T10:36:41;4.70;;;3.15;;
6862;SDS011;3470;48.738;9.616;2022-08-01T10:39:09;3.70;;;2.90;;
6862;SDS011;3470;48.738;9.616;2022-08-01T10:41:36;3.40;;;3.08;;
6862;SDS011;3470;48.738;9.616;2022-08-01T10:44:02;3.80;;;3.30;;
6862;SDS011;3470;48.738;9.616;2022-08-01T10:46:30;3.95;;;3.20;;
6862;SDS011;3470;48.738;9.616;2022-08-01T10:51:37;3.80;;;2.92;;
6862;SDS011;3470;48.738;9.616;2022-08-01T10:54:07;3.45;;;3.15;;
6862;SDS011;3470;48.738;9.616;2022-08-01T10:59:23;3.50;;;3.20;;
6862;SDS011;3470;48.738;9.616;2022-08-01T11:01:58;3.92;;;3.13;;
6862;SDS011;3470;48.738;9.616;2022-08-01T11:07:18;3.50;;;3.20;;
6862;SDS011;3470;48.738;9.616;2022-08-01T11:09:47;3.13;;;2.80;;
6862;SDS011;3470;48.738;9.616;2022-08-01T11:12:37;3.40;;;3.10;;
6862;SDS011;3470;48.738;9.616;2022-08-01T11:20:14;4.00;;;3.70;;
6862;SDS011;3470;48.738;9.616;2022-08-01T11:25:24;3.55;;;3.15;;
6862;SDS011;3470;48.738;9.616;2022-08-01T11:30:43;3.78;;;3.00;;
6862;SDS011;3470;48.738;9.616;2022-08-01T11:33:14;3.60;;;3.28;;
6862;SDS011;3470;48.738;9.616;2022-08-01T11:39:27;4.45;;;2.60;;
6862;SDS011;3470;48.738;9.616;2022-08-01T11:41:37;3.30;;;3.00;;
6862;SDS011;3470;48.738;9.616;2022-08-01T11:49:44;3.75;;;2.88;;
6862;SDS011;3470;48.738;9.616;2022-08-01T11:52:19;2.65;;;2.45;;
6862;SDS011;3470;48.738;9.616;2022-08-01T11:54:54;2.70;;;2.50;;
6862;SDS011;3470;48.738;9.616;2022-08-01T11:57:21;3.75;;;2.58;;
6862;SDS011;3470;48.738;9.616;2022-08-01T11:59:48;2.65;;;2.45;;
6862;SDS011;3470;48.738;9.616;2022-08-01T12:02:16;5.70;;;2.85;;
6862;SDS011;3470;48.738;9.616;2022-08-01T12:04:59;2.70;;;2.50;;
6862;SDS011;3470;48.738;9.616;2022-08-01T12:07:33;2.33;;;2.13;;
6862;SDS011;3470;48.738;9.616;2022-08-01T12:10:01;2.97;;;2.50;;
6862;SDS011;3470;48.738;9.616;2022-08-01T12:12:29;2.60;;;2.40;;
6862;SDS011;3470;48.738;9.616;2022-08-01T12:14:56;3.80;;;2.60;;
6862;SDS011;3470;48.738;9.616;2022-08-01T12:17:37;3.15;;;2.55;;
6862;SDS011;3470;48.738;9.616;2022-08-01T12:20:05;2.95;;;2.75;;
6862;SDS011;3470;48.738;9.616;2022-08-01T12:22:33;2.53;;;2.33;;
6862;SDS011;3470;48.738;9.616;2022-08-01T12:25:06;2.50;;;2.30;;
6862;SDS011;3470;48.738;9.616;2022-08-01T12:27:33;2.55;;;2.30;;
6862;SDS011;3470;48.738;9.616;2022-08-01T12:30:00;3.55;;;2.42;;
6862;SDS011;3470;48.738;9.616;2022-08-01T12:32:29;2.63;;;2.42;;
6862;SDS011;3470;48.738;9.616;2022-08-01T12:34:57;3.05;;;2.33;;
6862;SDS011;3470;48.738;9.616;2022-08-01T12:37:28;2.72;;;2.53;;
6862;SDS011;3470;48.738;9.616;2022-08-01T12:39:54;2.75;;;2.55;;
6862;SDS011;3470;48.738;9.616;2022-08-01T12:42:21;3.33;;;2.30;;
6862;SDS011;3470;48.738;9.616;2022-08-01T12:44:48;2.45;;;2.25;;
6862;SDS011;3470;48.738;9.616;2022-08-01T12:47:16;3.65;;;2.47;;
6862;SDS011;3470;48.738;9.616;2022-08-01T12:49:43;2.75;;;2.40;;
6862;SDS011;3470;48.738;9.616;2022-08-01T12:52:10;2.92;;;2.63;;
6862;SDS011;3470;48.738;9.616;2022-08-01T12:57:31;3.80;;;2.63;;
6862;SDS011;3470;48.738;9.616;2022-08-01T13:00:10;2.60;;;2.40;;
6862;SDS011;3470;48.738;9.616;2022-08-01T13:02:45;2.70;;;2.50;;
6862;SDS011;3470;48.738;9.616;2022-08-01T13:05:12;3.53;;;2.28;;
6862;SDS011;3470;48.738;9.616;2022-08-01T13:07:49;3.40;;;2.30;;
6862;SDS011;3470;48.738;9.616;2022-08-01T13:10:23;2.47;;;2.10;;
6862;SDS011;3470;48.738;9.616;2022-08-01T13:12:55;2.95;;;2.25;;
6862;SDS011;3470;48.738;9.616;2022-08-01T13:15:23;3.33;;;2.38;;
6862;SDS011;3470;48.738;9.616;2022-08-01T13:17:51;4.72;;;2.40;;
6862;SDS011;3470;48.738;9.616;2022-08-01T13:20:22;3.10;;;2.03;;
6862;SDS011;3470;48.738;9.616;2022-08-01T13:22:49;4.90;;;2.30;;
6862;SDS011;3470;48.738;9.616;2022-08-01T13:25:15;2.65;;;2.10;;
6862;SDS011;3470;48.738;9.616;2022-08-01T13:27:41;2.38;;;1.77;;
6862;SDS011;3470;48.738;9.616;2022-08-01T13:30:25;2.45;;;2.08;;
6862;SDS011;3470;48.738;9.616;2022-08-01T13:33:00;4.10;;;2.28;;
6862;SDS011;3470;48.738;9.616;2022-08-01T13:35:25;3.20;;;1.92;;
6862;SDS011;3470;48.738;9.616;2022-08-01T13:37:51;3.53;;;2.15;;
6862;SDS011;3470;48.738;9.616;2022-08-01T13:40:24;4.07;;;2.10;;
6862;SDS011;3470;48.738;9.616;2022-08-01T13:42:51;3.70;;;2.17;;
6862;SDS011;3470;48.738;9.616;2022-08-01T13:45:18;2.08;;;1.88;;
6862;SDS011;3470;48.738;9.616;2022-08-01T13:47:44;2.25;;;2.00;;
6862;SDS011;3470;48.738;9.616;2022-08-01T13:50:09;2.17;;;1.95;;
6862;SDS011;3470;48.738;9.616;2022-08-01T13:52:35;2.13;;;1.92;;
6862;SDS011;3470;48.738;9.616;2022-08-01T13:55:01;2.35;;;2.03;;
6862;SDS011;3470;48.738;9.616;2022-08-01T13:57:27;2.85;;;1.80;;
6862;SDS011;3470;48.738;9.616;2022-08-01T13:59:53;2.25;;;2.00;;
6862;SDS011;3470;48.738;9.616;2022-08-01T14:02:19;2.42;;;1.77;;
6862;SDS011;3470;48.738;9.616;2022-08-01T14:04:45;2.80;;;1.73;;
6862;SDS011;3470;48.738;9.616;2022-08-01T14:07:10;3.20;;;2.10;;
6862;SDS011;3470;48.738;9.616;2022-08-01T14:09:36;1.88;;;1.77;;
6862;SDS011;3470;48.738;9.616;2022-08-01T14:12:03;2.70;;;2.30;;
6862;SDS011;3470;48.738;9.616;2022-08-01T14:14:29;2.00;;;1.80;;
6862;SDS011;3470;48.738;9.616;2022-08-01T14:16:55;3.70;;;2.15;;
6862;SDS011;3470;48.738;9.616;2022-08-01T14:19:21;3.80;;;2.38;;
6862;SDS011;3470;48.738;9.616;2022-08-01T14:21:47;2.95;;;2.00;;
6862;SDS011;3470;48.738;9.616;2022-08-01T14:24:12;2.00;;;1.83;;
6862;SDS011;3470;48.738;9.616;2022-08-01T14:26:38;3.90;;;1.80;;
6862;SDS011;3470;48.738;9.616;2022-08-01T14:29:03;2.45;;;1.83;;
6862;SDS011;3470;48.738;9.616;2022-08-01T14:31:29;1.90;;;1.80;;
6862;SDS011;3470;48.738;9.616;2022-08-01T14:33:55;2.33;;;2.05;;
6862;SDS011;3470;48.738;9.616;2022-08-01T14:36:21;4.43;;;1.90;;
6862;SDS011;3470;48.738;9.616;2022-08-01T14:38:46;2.10;;;1.90;;
6862;SDS011;3470;48.738;9.616;2022-08-01T14:41:13;3.75;;;1.85;;
6862;SDS011;3470;48.738;9.616;2022-08-01T14:43:39;3.53;;;2.00;;
6862;SDS011;3470;48.738;9.616;2022-08-01T14:46:04;1.98;;;1.70;;
6862;SDS011;3470;48.738;9.616;2022-08-01T14:48:30;2.15;;;1.92;;
6862;SDS011;3470;48.738;9.616;2022-08-01T14:50:57;1.70;;;1.60;;
6862;SDS011;3470;48.738;9.616;2022-08-01T14:53:24;2.50;;;1.63;;
6862;SDS011;3470;48.738;9.616;2022-08-01T14:55:49;3.40;;;1.85;;
6862;SDS011;3470;48.738;9.616;2022-08-01T14:58:15;2.92;;;2.00;;
6862;SDS011;3470;48.738;9.616;2022-08-01T15:00:40;2.30;;;1.98;;
6862;SDS011;3470;48.738;9.616;2022-08-01T15:03:06;1.70;;;1.60;;
6862;SDS011;3470;48.738;9.616;2022-08-01T15:05:32;2.53;;;1.77;;
6862;SDS011;3470;48.738;9.616;2022-08-01T15:07:57;3.88;;;1.77;;
6862;SDS011;3470;48.738;9.616;2022-08-01T15:10:23;1.83;;;1.73;;
6862;SDS011;3470;48.738;9.616;2022-08-01T15:12:49;1.73;;;1.60;;
6862;SDS011;3470;48.738;9.616;2022-08-01T15:15:14;1.88;;;1.60;;
6862;SDS011;3470;48.738;9.616;2022-08-01T15:17:40;2.65;;;1.90;;
6862;SDS011;3470;48.738;9.616;2022-08-01T15:20:06;2.00;;;1.80;;
6862;SDS011;3470;48.738;9.616;2022-08-01T15:22:32;2.28;;;1.90;;
6862;SDS011;3470;48.738;9.616;2022-08-01T15:24:59;3.17;;;1.80;;
6862;SDS011;3470;48.738;9.616;2022-08-01T15:27:26;1.70;;;1.60;;
6862;SDS011;3470;48.738;9.616;2022-08-01T15:29:53;3.20;;;1.52;;
6862;SDS011;3470;48.738;9.616;2022-08-01T15:32:20;2.00;;;1.90;;
6862;SDS011;3470;48.738;9.616;2022-08-01T15:34:46;3.30;;;1.95;;
6862;SDS011;3470;48.738;9.616;2022-08-01T15:37:12;2.10;;;1.85;;
6862;SDS011;3470;48.738;9.616;2022-08-01T15:39:38;3.05;;;1.90;;
6862;SDS011;3470;48.738;9.616;2022-08-01T15:42:05;1.70;;;1.60;;
6862;SDS011;3470;48.738;9.616;2022-08-01T15:44:34;2.22;;;1.80;;
6862;SDS011;3470;48.738;9.616;2022-08-01T15:47:00;1.60;;;1.50;;
6862;SDS011;3470;48.738;9.616;2022-08-01T15:49:26;3.33;;;1.75;;
6862;SDS011;3470;48.738;9.616;2022-08-01T15:51:52;2.47;;;1.60;;
6862;SDS011;3470;48.738;9.616;2022-08-01T15:54:18;1.70;;;1.60;;
6862;SDS011;3470;48.738;9.616;2022-08-01T15:56:44;1.60;;;1.50;;
6862;SDS011;3470;48.738;9.616;2022-08-01T15:59:10;2.20;;;2.00;;
6862;SDS011;3470;48.738;9.616;2022-08-01T16:01:36;3.88;;;1.70;;